Time;durP1;ratioP1;P1;durP2;ratioP2;P2;SDS_P1;SDS_P2;PMS_P1;PMS_P2;Temp;Humidity;BMP_temperature;BMP_pressure;BME280_temperature;BME280_humidity;BME280_pressure;Samples;Min_cycle;Max_cycle;Signal;HPM_P1;HPM_P2
2023/08/03 00:02:11;;;;;;;;;;;;;;;15.34;100.00;98980.13;5054660;28;20310;-78
2023/08/03 00:04:36;;;;;;;;;;;;;;;15.32;100.00;98983.00;5054334;28;20379;-80
2023/08/03 00:07:01;;;;;;;;;;;;;;;15.31;100.00;98988.59;5055061;28;19921;-79
2023/08/03 00:09:27;;;;;;;;;;;;;;;15.32;100.00;98987.56;5054215;28;20372;-78
2023/08/03 00:11:52;;;;;;;;;;;;;;;15.30;100.00;98987.78;5054237;28;19928;-78
2023/08/03 00:14:17;;;;;;;;;;;;;;;15.30;100.00;99006.53;5054207;28;19920;-81
2023/08/03 00:16:43;;;;;;;;;;;;;;;15.28;100.00;98995.19;5054211;28;20015;-78
2023/08/03 00:19:08;;;;;;;;;;;;;;;15.29;100.00;99001.38;5072151;28;19927;-79
2023/08/03 00:21:33;;;;;;;;;;;;;;;15.29;100.00;99007.56;5072135;28;19925;-80
2023/08/03 00:23:58;;;;;;;;;;;;;;;15.31;100.00;99012.69;5054807;28;20343;-79
2023/08/03 00:26:24;;;;;;;;;;;;;;;15.33;100.00;99016.81;5054137;28;19943;-77
2023/08/03 00:28:49;;;;;;;;;;;;;;;15.36;100.00;99023.63;5072191;28;20026;-79
2023/08/03 00:31:14;;;;;;;;;;;;;;;15.39;100.00;99022.34;5053990;28;19921;-79
2023/08/03 00:33:39;;;;;;;;;;;;;;;15.41;100.00;99026.47;5054166;28;19997;-80
2023/08/03 00:36:05;;;;;;;;;;;;;;;15.39;100.00;99025.88;5072143;28;19921;-79
2023/08/03 00:38:30;;;;;;;;;;;;;;;15.38;100.00;99026.06;5054288;28;19921;-80
2023/08/03 00:40:55;;;;;;;;;;;;;;;15.38;100.00;99029.56;5071764;28;19928;-79
2023/08/03 00:43:20;;;;;;;;;;;;;;;15.38;100.00;99034.13;5072294;28;19920;-80
2023/08/03 00:45:46;;;;;;;;;;;;;;;15.37;100.00;99041.31;5071994;28;20355;-81
2023/08/03 00:48:11;;;;;;;;;;;;;;;15.38;100.00;99045.66;5054399;28;19924;-80
2023/08/03 00:50:36;;;;;;;;;;;;;;;15.36;100.00;99047.72;5072091;28;19916;-81
2023/08/03 00:53:02;;;;;;;;;;;;;;;15.31;100.00;99044.84;5054132;28;19999;-83
2023/08/03 00:55:27;;;;;;;;;;;;;;;15.28;100.00;99048.78;5053869;28;19975;-82
2023/08/03 00:57:52;;;;;;;;;;;;;;;15.26;100.00;99047.38;5071923;28;20016;-80
2023/08/03 01:00:18;;;;;;;;;;;;;;;15.23;100.00;99053.97;5072445;28;19924;-81
2023/08/03 01:02:43;;;;;;;;;;;;;;;15.23;100.00;99062.00;5071714;28;19924;-81
2023/08/03 01:05:08;;;;;;;;;;;;;;;15.27;100.00;99060.53;5037857;28;20397;-83
2023/08/03 01:07:34;;;;;;;;;;;;;;;15.29;100.00;99054.97;5075860;28;19933;-80
2023/08/03 01:09:59;;;;;;;;;;;;;;;15.32;100.00;99057.22;5075476;28;19926;-81
2023/08/03 01:12:25;;;;;;;;;;;;;;;15.28;100.00;99062.16;5057562;28;19943;-83
2023/08/03 01:14:50;;;;;;;;;;;;;;;15.26;100.00;99061.56;5057829;28;19959;-81
2023/08/03 01:17:15;;;;;;;;;;;;;;;15.24;100.00;99063.66;5075576;28;19924;-81
2023/08/03 01:19:41;;;;;;;;;;;;;;;15.24;100.00;99068.16;5075430;28;20061;-83
2023/08/03 01:22:08;;;;;;;;;;;;;;;15.22;100.00;99064.88;5075785;28;20316;-82
2023/08/03 01:24:33;;;;;;;;;;;;;;;15.21;100.00;99076.63;5058401;28;19993;-82
2023/08/03 01:27:02;;;;;;;;;;;;;;;15.16;100.00;99075.41;5075597;28;20357;-81
2023/08/03 01:29:29;;;;;;;;;;;;;;;15.14;100.00;99074.81;5057493;28;20000;-84
2023/08/03 01:31:56;;;;;;;;;;;;;;;15.12;100.00;99076.88;5041434;28;20417;-80
2023/08/03 01:34:22;;;;;;;;;;;;;;;15.09;100.00;99071.94;5076060;28;19927;-80
2023/08/03 01:36:47;;;;;;;;;;;;;;;15.09;100.00;99071.09;5057661;28;19916;-80
2023/08/03 01:39:12;;;;;;;;;;;;;;;15.08;100.00;99086.38;5058203;28;19925;-81
2023/08/03 01:41:38;;;;;;;;;;;;;;;15.08;100.00;99083.69;5057247;28;19920;-84
2023/08/03 01:44:18;;;;;;;;;;;;;;;15.08;100.00;99086.38;5075181;28;19931;-81
2023/08/03 01:46:44;;;;;;;;;;;;;;;15.12;100.00;99084.06;5057714;28;20046;-82
2023/08/03 01:49:09;;;;;;;;;;;;;;;15.11;100.00;99077.91;5075549;28;20348;-82
2023/08/03 01:51:34;;;;;;;;;;;;;;;15.13;100.00;99085.72;5057031;28;19920;-84
2023/08/03 01:53:59;;;;;;;;;;;;;;;15.12;100.00;99084.06;5075528;28;19933;-83
2023/08/03 01:56:25;;;;;;;;;;;;;;;15.11;100.00;99088.63;5057162;28;19920;-87
2023/08/03 01:58:50;;;;;;;;;;;;;;;15.11;100.00;99090.50;5075211;28;19923;-84
2023/08/03 02:01:15;;;;;;;;;;;;;;;15.10;100.00;99086.97;5057009;28;20024;-85
2023/08/03 02:03:40;;;;;;;;;;;;;;;15.09;100.00;99089.84;5057156;28;19956;-83
2023/08/03 02:06:06;;;;;;;;;;;;;;;15.09;100.00;99084.50;5056981;28;20434;-83
2023/08/03 02:08:31;;;;;;;;;;;;;;;15.07;100.00;99094.63;5057326;28;19921;-83
2023/08/03 02:10:56;;;;;;;;;;;;;;;15.04;100.00;99095.03;5075209;28;19917;-80
2023/08/03 02:13:21;;;;;;;;;;;;;;;15.00;100.00;99091.94;5056746;28;20424;-83
2023/08/03 02:15:47;;;;;;;;;;;;;;;14.94;100.00;99096.31;5056961;28;20257;-87
2023/08/03 02:18:12;;;;;;;;;;;;;;;14.90;100.00;99099.59;5073469;28;20286;-81
2023/08/03 02:20:37;;;;;;;;;;;;;;;14.86;100.00;99091.16;5074753;28;19920;-82
2023/08/03 02:23:02;;;;;;;;;;;;;;;14.84;100.00;99095.06;5056260;28;19921;-82
2023/08/03 02:25:28;;;;;;;;;;;;;;;14.82;100.00;99092.59;5056435;28;20381;-83
2023/08/03 02:27:53;;;;;;;;;;;;;;;14.78;100.00;99092.22;5056151;28;20283;-83
2023/08/03 02:30:18;;;;;;;;;;;;;;;14.76;100.00;99105.00;5073920;28;20380;-81
2023/08/03 02:32:43;;;;;;;;;;;;;;;14.72;100.00;99103.75;5074834;28;19932;-82
2023/08/03 02:35:09;;;;;;;;;;;;;;;14.73;100.00;99102.72;5056542;28;19959;-82
2023/08/03 02:37:34;;;;;;;;;;;;;;;14.79;100.00;99117.13;5056267;28;20391;-81
2023/08/03 02:39:59;;;;;;;;;;;;;;;14.81;100.00;99120.44;5039632;28;19974;-81
2023/08/03 02:42:24;;;;;;;;;;;;;;;14.88;100.00;99121.22;5073941;28;19917;-82
2023/08/03 02:44:49;;;;;;;;;;;;;;;14.91;100.00;99119.97;5073656;28;20326;-79
2023/08/03 02:47:15;;;;;;;;;;;;;;;14.92;100.00;99119.78;5073716;28;20313;-82
2023/08/03 02:49:40;;;;;;;;;;;;;;;14.95;100.00;99119.34;5073839;28;20395;-82
2023/08/03 02:52:05;;;;;;;;;;;;;;;14.97;100.00;99119.97;5073728;28;19978;-85
2023/08/03 02:54:31;;;;;;;;;;;;;;;15.01;100.00;99128.41;5074171;28;20015;-83
2023/08/03 02:56:58;;;;;;;;;;;;;;;15.05;100.00;99126.97;5073687;28;19921;-83
2023/08/03 02:59:24;;;;;;;;;;;;;;;15.06;100.00;99133.97;5073417;28;19920;-86
2023/08/03 03:01:49;;;;;;;;;;;;;;;15.09;100.00;99132.72;5073810;28;20368;-85
2023/08/03 03:04:14;;;;;;;;;;;;;;;15.08;100.00;99145.28;5055502;28;19966;-85
2023/08/03 03:06:42;;;;;;;;;;;;;;;15.07;100.00;99148.19;5073775;28;19960;-80
2023/08/03 03:09:07;;;;;;;;;;;;;;;15.03;100.00;99150.44;5073713;28;19921;-83
2023/08/03 03:11:32;;;;;;;;;;;;;;;15.02;100.00;99156.84;5073466;28;19923;-82
2023/08/03 03:13:57;;;;;;;;;;;;;;;14.97;100.00;99159.31;5073666;28;19928;-80
2023/08/03 03:16:25;;;;;;;;;;;;;;;14.95;100.00;99161.38;5073048;28;19966;-83
2023/08/03 03:18:51;;;;;;;;;;;;;;;14.92;100.00;99167.16;5055509;28;19940;-83
2023/08/03 03:21:16;;;;;;;;;;;;;;;14.90;100.00;99164.69;5072968;28;19916;-82
2023/08/03 03:23:41;;;;;;;;;;;;;;;14.87;100.00;99170.47;5055680;28;19924;-82
2023/08/03 03:26:07;;;;;;;;;;;;;;;14.83;100.00;99174.59;5055661;28;20360;-83
2023/08/03 03:28:32;;;;;;;;;;;;;;;14.85;100.00;99185.09;5055991;28;19925;-81
2023/08/03 03:30:57;;;;;;;;;;;;;;;14.85;100.00;99175.19;5038526;28;20336;-80
2023/08/03 03:33:22;;;;;;;;;;;;;;;14.87;100.00;99177.66;5055755;28;19916;-82
2023/08/03 03:35:48;;;;;;;;;;;;;;;14.85;100.00;99180.53;5073361;28;19928;-82
2023/08/03 03:38:13;;;;;;;;;;;;;;;14.84;100.00;99184.28;5055802;28;20023;-75
2023/08/03 03:40:38;;;;;;;;;;;;;;;14.85;100.00;99193.13;5073231;28;19936;-78
2023/08/03 03:43:03;;;;;;;;;;;;;;;14.81;100.00;99182.00;5038444;28;20042;-79
2023/08/03 03:45:30;;;;;;;;;;;;;;;14.83;100.00;99196.00;5072685;28;19921;-78
2023/08/03 03:47:55;;;;;;;;;;;;;;;14.82;100.00;99191.66;5072695;28;19916;-80
2023/08/03 03:50:21;;;;;;;;;;;;;;;14.84;100.00;99194.13;5054903;28;19916;-80
2023/08/03 03:52:47;;;;;;;;;;;;;;;14.84;100.00;99194.13;5073046;28;19920;-81
2023/08/03 03:55:12;;;;;;;;;;;;;;;14.85;100.00;99201.97;5073013;28;20410;-77
2023/08/03 03:57:38;;;;;;;;;;;;;;;14.87;100.00;99212.47;5054736;28;20019;-81
2023/08/03 04:00:04;;;;;;;;;;;;;;;14.81;100.00;99209.59;5054546;28;19927;-78
2023/08/03 04:02:31;;;;;;;;;;;;;;;14.79;100.00;99219.69;5073193;28;19917;-76
2023/08/03 04:04:56;;;;;;;;;;;;;;;14.78;100.00;99228.75;5053925;28;19921;-80
2023/08/03 04:07:22;;;;;;;;;;;;;;;14.77;100.00;99232.44;5053791;28;20022;-76
2023/08/03 04:09:47;;;;;;;;;;;;;;;14.77;100.00;99237.81;5037068;28;19927;-77
2023/08/03 04:12:13;;;;;;;;;;;;;;;14.73;100.00;99236.56;5054489;28;19921;-80
2023/08/03 04:14:39;;;;;;;;;;;;;;;14.71;100.00;99237.81;5037831;28;19921;-79
2023/08/03 04:17:05;;;;;;;;;;;;;;;14.69;100.00;99242.53;5038129;28;19959;-82
2023/08/03 04:19:30;;;;;;;;;;;;;;;14.65;100.00;99252.84;5053684;28;19967;-82
2023/08/03 04:21:55;;;;;;;;;;;;;;;14.62;100.00;99255.91;5072514;28;19944;-84
2023/08/03 04:24:21;;;;;;;;;;;;;;;14.61;100.00;99254.25;5072647;28;19916;-84
2023/08/03 04:26:46;;;;;;;;;;;;;;;14.61;100.00;99260.47;5072741;28;19921;-84
2023/08/03 04:29:11;;;;;;;;;;;;;;;14.60;100.00;99269.47;5072405;28;19928;-81
2023/08/03 04:31:37;;;;;;;;;;;;;;;14.59;100.00;99267.81;5054153;28;19921;-79
2023/08/03 04:34:02;;;;;;;;;;;;;;;14.56;100.00;99273.56;5073485;28;19931;-81
2023/08/03 04:36:27;;;;;;;;;;;;;;;14.55;100.00;99271.09;5037856;28;20316;-80
2023/08/03 04:38:52;;;;;;;;;;;;;;;14.55;100.00;99274.59;5073056;28;20145;-80
2023/08/03 04:41:20;;;;;;;;;;;;;;;14.54;100.00;99266.78;5057246;28;19920;-79
2023/08/03 04:43:45;;;;;;;;;;;;;;;14.55;100.00;99287.16;5076613;28;20010;-79
2023/08/03 04:46:10;;;;;;;;;;;;;;;14.56;100.00;99276.25;5077198;28;20011;-80
2023/08/03 04:48:36;;;;;;;;;;;;;;;14.57;100.00;99287.78;5076914;28;19927;-80
2023/08/03 04:51:01;;;;;;;;;;;;;;;14.57;100.00;99287.78;5076884;28;19925;-81
2023/08/03 04:53:26;;;;;;;;;;;;;;;14.55;100.00;99284.50;5076394;28;19925;-83
2023/08/03 04:55:52;;;;;;;;;;;;;;;14.54;100.00;99290.84;5058284;28;20470;-82
2023/08/03 04:58:17;;;;;;;;;;;;;;;14.54;100.00;99286.34;5076567;28;19925;-82
2023/08/03 05:00:42;;;;;;;;;;;;;;;14.57;100.00;99293.13;5058042;28;19924;-82
2023/08/03 05:03:07;;;;;;;;;;;;;;;14.58;100.00;99290.25;5057982;28;20352;-84
2023/08/03 05:05:33;;;;;;;;;;;;;;;14.59;100.00;99289.22;5057867;28;19930;-84
2023/08/03 05:07:58;;;;;;;;;;;;;;;14.61;100.00;99310.47;5058691;28;19921;-80
2023/08/03 05:10:23;;;;;;;;;;;;;;;14.63;100.00;99289.69;5075842;28;19920;-80
2023/08/03 05:12:51;;;;;;;;;;;;;;;14.67;100.00;99298.13;5075796;28;20073;-78
2023/08/03 05:15:16;;;;;;;;;;;;;;;14.69;100.00;99296.06;5057745;28;19916;-83
2023/08/03 05:17:41;;;;;;;;;;;;;;;14.71;100.00;99299.38;5076203;28;20340;-82
2023/08/03 05:20:07;;;;;;;;;;;;;;;14.73;100.00;99302.66;5057855;28;20134;-81
2023/08/03 05:22:32;;;;;;;;;;;;;;;14.76;100.00;99292.41;5075659;28;19959;-80
2023/08/03 05:24:57;;;;;;;;;;;;;;;14.77;100.00;99301.25;5041304;28;20354;-78
2023/08/03 05:27:23;;;;;;;;;;;;;;;14.79;100.00;99297.34;5057370;28;19920;-80
2023/08/03 05:29:48;;;;;;;;;;;;;;;14.85;100.00;99295.66;5057422;28;20015;-82
2023/08/03 05:32:14;;;;;;;;;;;;;;;14.89;100.00;99298.78;5055928;28;20306;-83
2023/08/03 05:34:39;;;;;;;;;;;;;;;14.94;100.00;99304.34;5076732;28;19936;-76
2023/08/03 05:37:04;;;;;;;;;;;;;;;15.03;100.00;99296.94;5075823;28;20386;-83
2023/08/03 05:39:30;;;;;;;;;;;;;;;15.13;100.00;99300.84;5075650;28;19920;-83
2023/08/03 05:41:55;;;;;;;;;;;;;;;15.20;100.00;99308.03;5076096;28;19916;-79
2023/08/03 05:44:20;;;;;;;;;;;;;;;15.24;100.00;99309.28;5075062;28;19921;-80
2023/08/03 05:46:49;;;;;;;;;;;;;;;15.29;100.00;99312.19;5057445;28;19927;-81
2023/08/03 05:49:14;;;;;;;;;;;;;;;15.30;100.00;99322.69;5058294;28;19920;-79
2023/08/03 05:51:39;;;;;;;;;;;;;;;15.30;100.00;99316.50;5041119;28;19930;-78
2023/08/03 05:54:05;;;;;;;;;;;;;;;15.27;100.00;99316.91;5057102;28;20253;-80
2023/08/03 05:56:33;;;;;;;;;;;;;;;15.25;100.00;99316.31;5056498;28;20392;-77
2023/08/03 05:58:58;;;;;;;;;;;;;;;15.26;100.00;99332.16;5074701;28;19927;-80
2023/08/03 06:01:23;;;;;;;;;;;;;;;15.28;100.00;99335.47;5074554;28;19924;-80
2023/08/03 06:03:50;;;;;;;;;;;;;;;15.23;100.00;99347.84;5074639;28;20122;-83
2023/08/03 06:06:18;;;;;;;;;;;;;;;15.16;100.00;99348.66;5074541;28;20037;-77
2023/08/03 06:08:45;;;;;;;;;;;;;;;15.16;100.00;99353.19;5074377;28;19917;-79
2023/08/03 06:11:11;;;;;;;;;;;;;;;15.18;100.00;99359.16;5074749;28;19917;-77
2023/08/03 06:13:38;;;;;;;;;;;;;;;15.20;100.00;99366.97;5056328;28;19920;-79
2023/08/03 06:16:07;;;;;;;;;;;;;;;15.24;100.00;99376.28;5074382;28;19943;-79
2023/08/03 06:18:32;;;;;;;;;;;;;;;15.25;100.00;99386.78;5074514;28;20036;-77
2023/08/03 06:20:58;;;;;;;;;;;;;;;15.27;100.00;99382.06;5074343;28;20407;-79
2023/08/03 06:23:25;;;;;;;;;;;;;;;15.30;100.00;99392.38;5074656;28;19970;-77
2023/08/03 06:25:51;;;;;;;;;;;;;;;15.31;100.00;99401.22;5075297;28;19920;-76
2023/08/03 06:28:17;;;;;;;;;;;;;;;15.30;100.00;99416.47;5074550;28;19916;-78
2023/08/03 06:30:43;;;;;;;;;;;;;;;15.31;100.00;99414.63;5074452;28;19917;-77
2023/08/03 06:33:10;;;;;;;;;;;;;;;15.31;100.00;99426.16;5074196;28;19962;-79
2023/08/03 06:35:38;;;;;;;;;;;;;;;15.34;100.00;99433.78;5074933;28;19921;-79
2023/08/03 06:38:04;;;;;;;;;;;;;;;15.38;100.00;99441.44;5056129;28;19920;-79
2023/08/03 06:40:29;;;;;;;;;;;;;;;15.41;100.00;99443.69;5075031;28;19921;-78
2023/08/03 06:42:54;;;;;;;;;;;;;;;15.43;100.00;99455.84;5074694;28;19927;-77
2023/08/03 06:45:20;;;;;;;;;;;;;;;15.45;100.00;99471.72;5075317;28;20344;-78
2023/08/03 06:47:45;;;;;;;;;;;;;;;15.51;100.00;99476.28;5074520;28;19927;-82
2023/08/03 06:50:10;;;;;;;;;;;;;;;15.55;100.00;99480.19;5057277;28;20011;-80
2023/08/03 06:52:36;;;;;;;;;;;;;;;15.59;100.00;99494.03;5056932;28;19928;-78
2023/08/03 06:55:01;;;;;;;;;;;;;;;15.58;100.00;99506.59;5075165;28;20432;-81
2023/08/03 06:57:26;;;;;;;;;;;;;;;15.60;100.00;99514.44;5074713;28;20271;-77
2023/08/03 06:59:53;;;;;;;;;;;;;;;15.62;100.00;99523.94;5074666;28;20011;-77
2023/08/03 07:02:18;;;;;;;;;;;;;;;15.68;100.00;99535.69;5074429;28;20288;-79
2023/08/03 07:04:43;;;;;;;;;;;;;;;15.71;100.00;99542.50;5055702;28;19939;-79
2023/08/03 07:07:09;;;;;;;;;;;;;;;15.80;100.00;99547.50;5075082;28;19923;-83
2023/08/03 07:09:34;;;;;;;;;;;;;;;15.86;100.00;99564.63;5074708;28;19924;-79
2023/08/03 07:11:59;;;;;;;;;;;;;;;15.88;100.00;99557.19;5040060;28;19928;-81
2023/08/03 07:14:26;;;;;;;;;;;;;;;15.90;100.00;99565.03;5057398;28;19916;-81
2023/08/03 07:16:51;;;;;;;;;;;;;;;15.91;100.00;99580.09;5074930;28;19978;-78
2023/08/03 07:19:18;;;;;;;;;;;;;;;15.89;100.00;99588.34;5074693;28;19960;-80
2023/08/03 07:21:43;;;;;;;;;;;;;;;15.92;100.00;99587.13;5058394;28;20262;-81
2023/08/03 07:24:09;;;;;;;;;;;;;;;15.93;100.00;99594.13;5042748;28;20019;-80
2023/08/03 07:26:36;;;;;;;;;;;;;;;15.95;100.00;99598.25;5079575;28;20335;-82
2023/08/03 07:29:01;;;;;;;;;;;;;;;15.92;100.00;99604.03;5055651;28;20422;-83
2023/08/03 07:31:27;;;;;;;;;;;;;;;15.93;100.00;99612.91;5038818;28;19924;-80
2023/08/03 07:33:53;;;;;;;;;;;;;;;15.98;100.00;99621.19;5039943;28;19920;-83
2023/08/03 07:36:18;;;;;;;;;;;;;;;16.03;100.00;99626.75;5057158;28;19916;-82
2023/08/03 07:38:44;;;;;;;;;;;;;;;16.10;100.00;99632.94;5074992;28;20306;-81
2023/08/03 07:41:09;;;;;;;;;;;;;;;16.12;100.00;99647.00;5074734;28;19924;-82
2023/08/03 07:43:34;;;;;;;;;;;;;;;16.11;100.00;99650.72;5056570;28;19927;-80
2023/08/03 07:46:03;;;;;;;;;;;;;;;16.16;100.00;99658.97;5056273;28;19932;-84
2023/08/03 07:48:28;;;;;;;;;;;;;;;16.26;100.00;99658.56;5074310;28;20387;-81
2023/08/03 07:50:53;;;;;;;;;;;;;;;16.47;100.00;99670.97;5074186;28;20044;-85
2023/08/03 07:53:21;;;;;;;;;;;;;;;16.71;100.00;99677.56;5055960;28;20034;-79
2023/08/03 07:55:46;;;;;;;;;;;;;;;16.95;100.00;99685.22;5074355;28;19929;-79
2023/08/03 07:58:12;;;;;;;;;;;;;;;17.05;100.00;99691.00;5056007;28;19923;-82
2023/08/03 08:00:37;;;;;;;;;;;;;;;17.12;100.00;99697.16;5055808;28;20014;-84
2023/08/03 08:03:02;;;;;;;;;;;;;;;17.12;100.00;99702.53;5055914;28;19921;-80
2023/08/03 08:05:27;;;;;;;;;;;;;;;17.08;100.00;99702.16;5051518;28;19925;-84
2023/08/03 08:07:53;;;;;;;;;;;;;;;17.13;100.00;99714.13;5053437;28;19964;-84
2023/08/03 08:10:18;;;;;;;;;;;;;;;17.18;100.00;99717.00;5052658;28;20324;-83
2023/08/03 08:12:44;;;;;;;;;;;;;;;17.35;100.00;99725.47;5054307;28;19970;-88
2023/08/03 08:15:09;;;;;;;;;;;;;;;17.57;100.00;99724.16;5053968;28;19943;-84
2023/08/03 08:17:34;;;;;;;;;;;;;;;17.90;100.00;99722.38;5053635;28;19921;-89
2023/08/03 08:20:00;;;;;;;;;;;;;;;18.38;100.00;99726.50;5053180;28;19992;-84
2023/08/03 08:22:25;;;;;;;;;;;;;;;18.76;100.00;99731.78;5052659;28;20007;-88
2023/08/03 08:24:50;;;;;;;;;;;;;;;18.78;100.00;99729.69;5053696;28;20015;-83
2023/08/03 08:27:16;;;;;;;;;;;;;;;18.62;100.00;99739.16;5054261;28;19917;-84
2023/08/03 08:29:43;;;;;;;;;;;;;;;18.45;100.00;99752.31;5052004;28;19921;-81
2023/08/03 08:32:08;;;;;;;;;;;;;;;18.26;100.00;99762.16;5052261;28;19923;-83
2023/08/03 08:34:33;;;;;;;;;;;;;;;18.06;100.00;99767.63;5053459;28;20019;-84
2023/08/03 08:36:59;;;;;;;;;;;;;;;17.75;100.00;99777.28;5056236;28;19928;-82
2023/08/03 08:39:24;;;;;;;;;;;;;;;17.43;100.00;99781.69;5053183;28;20295;-78
2023/08/03 08:41:49;;;;;;;;;;;;;;;17.10;100.00;99787.94;5053040;28;20316;-76
2023/08/03 08:44:14;;;;;;;;;;;;;;;16.76;100.00;99789.75;5053193;28;20066;-78
2023/08/03 08:46:43;;;;;;;;;;;;;;;16.53;100.00;99795.50;5052686;28;20304;-79
2023/08/03 08:49:08;;;;;;;;;;;;;;;16.39;100.00;99798.16;5053191;28;19916;-77
2023/08/03 08:51:35;;;;;;;;;;;;;;;16.36;100.00;99808.47;5053325;28;19928;-78
2023/08/03 08:54:01;;;;;;;;;;;;;;;16.60;100.00;99815.16;5052961;28;19927;-79
2023/08/03 08:56:26;;;;;;;;;;;;;;;17.08;100.00;99816.88;5052988;28;20003;-79
2023/08/03 08:58:51;;;;;;;;;;;;;;;17.70;100.00;99822.78;5053135;28;19925;-78
2023/08/03 09:01:16;;;;;;;;;;;;;;;17.97;100.00;99831.66;5052794;28;20345;-78
2023/08/03 09:03:49;;;;;;;;;;;;;;;18.39;100.00;99825.06;5052913;28;19917;-77
2023/08/03 09:06:14;;;;;;;;;;;;;;;18.65;100.00;99832.19;5064916;28;19925;-79
2023/08/03 09:08:50;;;;;;;;;;;;;;;18.55;100.00;99845.28;5054902;28;20447;-78
2023/08/03 09:11:15;;;;;;;;;;;;;;;18.27;100.00;99849.97;5072985;28;20334;-79
2023/08/03 09:13:40;;;;;;;;;;;;;;;18.06;100.00;99853.75;5072675;28;19920;-80
2023/08/03 09:16:20;;;;;;;;;;;;;;;17.91;100.00;99859.41;5073073;28;19947;-83
2023/08/03 09:18:46;;;;;;;;;;;;;;;17.69;100.00;99874.13;5054822;28;19939;-80
2023/08/03 09:21:15;;;;;;;;;;;;;;;17.63;100.00;99879.31;5055120;28;20325;-87
2023/08/03 09:23:42;;;;;;;;;;;;;;;17.51;100.00;99885.50;5054438;28;19916;-79
2023/08/03 09:26:08;;;;;;;;;;;;;;;17.55;100.00;99901.03;5038852;28;19971;-83
2023/08/03 09:28:41;;;;;;;;;;;;;;;17.74;100.00;99899.34;5076628;28;20289;-78
2023/08/03 09:31:06;;;;;;;;;;;;;;;17.70;100.00;99905.38;5058231;28;19924;-83
2023/08/03 09:33:33;;;;;;;;;;;;;;;17.86;100.00;99910.31;5058323;28;19917;-83
2023/08/03 09:36:05;;;;;;;;;;;;;;;18.24;100.00;99909.66;5076740;28;19920;-89
2023/08/03 09:38:30;;;;;;;;;;;;;;;18.77;100.00;99922.03;5081176;28;19917;-90
2023/08/03 09:40:56;;;;;;;;;;;;;;;19.03;100.00;99921.09;5043206;28;20125;-88
2023/08/03 09:43:23;;;;;;;;;;;;;;;18.87;100.00;99935.09;5044935;28;19921;-87
2023/08/03 09:45:51;;;;;;;;;;;;;;;18.83;100.00;99936.53;5058833;28;19923;-83
2023/08/03 09:48:16;;;;;;;;;;;;;;;19.44;100.00;99947.81;5076742;28;19924;-86
2023/08/03 09:50:43;;;;;;;;;;;;;;;19.96;100.00;99944.88;5077555;28;19917;-84
2023/08/03 09:53:13;;;;;;;;;;;;;;;20.12;100.00;99951.56;5058636;28;19986;-87
2023/08/03 09:55:42;;;;;;;;;;;;;;;19.67;100.00;99974.97;5059488;28;19917;-84
2023/08/03 09:58:08;;;;;;;;;;;;;;;19.19;100.00;99978.25;5080539;28;19938;-85
2023/08/03 10:00:34;;;;;;;;;;;;;;;18.57;100.00;99988.66;5081920;28;19924;-81
2023/08/03 10:02:59;;;;;;;;;;;;;;;18.08;100.00;100001.63;5081057;28;19952;-83
2023/08/03 10:05:28;;;;;;;;;;;;;;;17.46;100.00;100012.53;5076812;28;19920;-82
2023/08/03 10:08:02;;;;;;;;;;;;;;;17.18;100.00;100023.41;5076603;28;19923;-78
2023/08/03 10:10:29;;;;;;;;;;;;;;;16.83;100.00;100024.28;5057729;28;19917;-76
2023/08/03 10:13:00;;;;;;;;;;;;;;;16.57;100.00;100028.50;5075579;28;19920;-78
2023/08/03 10:15:26;;;;;;;;;;;;;;;16.37;100.00;100043.66;5057879;28;19939;-79
2023/08/03 10:17:52;;;;;;;;;;;;;;;16.14;100.00;100043.94;5057583;28;20336;-79
2023/08/03 10:20:18;;;;;;;;;;;;;;;15.92;100.00;100053.84;5075270;28;19917;-78
2023/08/03 10:23:06;;;;;;;;;;;;;;;15.73;100.00;100072.22;5075563;28;20410;-80
2023/08/03 10:25:32;;;;;;;;;;;;;;;15.39;100.00;100075.56;5062874;28;19916;-77
2023/08/03 10:28:11;;;;;;;;;;;;;;;15.31;100.00;100073.84;5057608;28;19916;-77
2023/08/03 10:30:55;;;;;;;;;;;;;;;15.21;100.00;100084.88;5057652;28;19924;-78
2023/08/03 10:33:20;;;;;;;;;;;;;;;15.10;100.00;100099.56;5075024;28;19923;-78
2023/08/03 10:35:47;;;;;;;;;;;;;;;15.00;100.00;100101.69;5075705;28;20281;-78
2023/08/03 10:38:18;;;;;;;;;;;;;;;14.95;100.00;100114.81;5075008;28;19977;-79
2023/08/03 10:40:44;;;;;;;;;;;;;;;14.87;100.00;100123.78;5075251;28;19927;-80
2023/08/03 10:43:18;;;;;;;;;;;;;;;14.88;100.00;100122.75;5076158;28;19921;-80
2023/08/03 10:45:43;;;;;;;;;;;;;;;14.93;100.00;100127.59;5076185;28;19917;-85
2023/08/03 10:48:28;;;;;;;;;;;;;;;14.98;100.00;100136.69;5074921;28;19926;-83
2023/08/03 10:51:03;;;;;;;;;;;;;;;15.06;100.00;100140.31;5074948;28;19925;-85
2023/08/03 10:53:28;;;;;;;;;;;;;;;15.13;100.00;100142.06;5076924;28;19916;-87
2023/08/03 10:56:09;;;;;;;;;;;;;;;15.25;100.00;100155.81;5077188;28;19920;-81
2023/08/03 10:58:53;;;;;;;;;;;;;;;15.30;100.00;100161.47;5057818;28;19966;-81
2023/08/03 11:01:22;;;;;;;;;;;;;;;15.27;100.00;100155.63;5075893;28;19917;-84
2023/08/03 11:03:47;;;;;;;;;;;;;;;15.17;100.00;100166.66;5077173;28;20019;-85
2023/08/03 11:06:13;;;;;;;;;;;;;;;15.13;100.00;100168.03;5077365;28;19932;-85
2023/08/03 11:08:40;;;;;;;;;;;;;;;15.11;100.00;100173.56;5075908;28;20609;-85
2023/08/03 11:11:10;;;;;;;;;;;;;;;15.17;100.00;100190.75;5059361;28;20368;-85
2023/08/03 11:13:36;;;;;;;;;;;;;;;15.18;100.00;100195.09;5075714;28;19955;-84
2023/08/03 11:16:01;;;;;;;;;;;;;;;15.19;100.00;100204.78;5057057;28;19920;-82
2023/08/03 11:18:29;;;;;;;;;;;;;;;15.21;100.00;100218.00;5074802;28;20032;-84
2023/08/03 11:20:54;;;;;;;;;;;;;;;15.22;100.00;100209.78;5074428;28;19932;-83
2023/08/03 11:23:20;;;;;;;;;;;;;;;15.27;100.00;100212.75;5075206;28;19920;-83
2023/08/03 11:25:46;;;;;;;;;;;;;;;15.38;100.00;100221.34;5056204;28;19920;-81
2023/08/03 11:28:20;;;;;;;;;;;;;;;15.54;100.00;100233.69;5057318;28;20007;-83
2023/08/03 11:30:45;;;;;;;;;;;;;;;15.73;100.00;100237.66;5075748;28;20343;-80
2023/08/03 11:33:14;;;;;;;;;;;;;;;15.85;100.00;100244.22;5075012;28;19924;-81
2023/08/03 11:35:39;;;;;;;;;;;;;;;16.07;100.00;100245.09;5074212;28;19917;-80
2023/08/03 11:38:08;;;;;;;;;;;;;;;16.33;100.00;100258.00;5075677;28;19962;-81
2023/08/03 11:40:34;;;;;;;;;;;;;;;16.59;100.00;100253.06;5075696;28;19921;-85
2023/08/03 11:43:01;;;;;;;;;;;;;;;16.85;100.00;100264.00;5058126;28;19986;-79
2023/08/03 11:45:28;;;;;;;;;;;;;;;17.16;100.00;100260.16;5075197;28;19927;-84
2023/08/03 11:47:54;;;;;;;;;;;;;;;17.22;100.00;100264.72;5075144;28;19916;-81
2023/08/03 11:50:19;;;;;;;;;;;;;;;17.37;100.00;100270.00;5074758;28;20007;-81
2023/08/03 11:52:44;;;;;;;;;;;;;;;17.56;100.00;100278.41;5075213;28;20023;-84
2023/08/03 11:55:24;;;;;;;;;;;;;;;17.82;100.00;100279.56;5073623;28;20015;-80
2023/08/03 11:58:07;;;;;;;;;;;;;;;17.79;100.00;100289.69;5074127;28;19916;-79
2023/08/03 12:00:33;;;;;;;;;;;;;;;17.69;100.00;100288.38;5056415;28;19917;-85
2023/08/03 12:02:58;;;;;;;;;;;;;;;18.43;100.00;100298.41;5056253;28;19992;-82
2023/08/03 12:05:26;;;;;;;;;;;;;;;19.30;100.00;100294.94;5073896;28;20015;-80
2023/08/03 12:07:55;;;;;;;;;;;;;;;19.70;100.00;100301.06;5074932;28;19928;-81
2023/08/03 12:10:20;;;;;;;;;;;;;;;19.62;100.00;100314.81;5073554;28;19978;-82
2023/08/03 12:12:48;;;;;;;;;;;;;;;19.35;100.00;100309.47;5074445;28;19916;-80
2023/08/03 12:15:13;;;;;;;;;;;;;;;18.97;100.00;100318.22;5074488;28;19916;-79
2023/08/03 12:17:44;;;;;;;;;;;;;;;18.82;100.00;100331.84;5055636;28;19923;-81
2023/08/03 12:20:10;;;;;;;;;;;;;;;18.63;100.00;100332.63;5056204;28;20363;-79
2023/08/03 12:22:36;;;;;;;;;;;;;;;18.41;100.00;100353.53;5073167;28;19916;-81
2023/08/03 12:25:05;;;;;;;;;;;;;;;18.10;100.00;100357.56;5073790;28;19924;-84
2023/08/03 12:27:32;;;;;;;;;;;;;;;17.98;100.00;100358.09;5057051;28;19923;-82
2023/08/03 12:29:57;;;;;;;;;;;;;;;17.90;100.00;100362.81;5073984;28;19952;-82
2023/08/03 12:32:23;;;;;;;;;;;;;;;17.69;100.00;100382.53;5074517;28;19939;-82